Weather at Pellston Regional Airport of Emmet County Airport

Public forecast

Using degrees Fahrenheit for public forecast. Weather courtesy of forecast.io.

Current aviation weather report (METAR) for Pellston Regional Airport of Emmet County Airport

Retrieved 2021/07/31 22:54 UTC (51 minutes ago):

KPLN 312254Z AUTO 31010KT 7SM FEW027 22/16 A2989 RMK AO2 SLP121 T02170156

Aviation forecast (TAF) for Pellston Regional Airport of Emmet County Airport

Retrieved 2021/07/31 18:39 UTC (5 hours ago):

TAF KPLN 311735Z 3118/0118 27009G16KT P6SM VCTS SCT035CB BKN050 FM312100 27009KT P6SM BKN060 FM010300 31006KT P6SM VCSH SCT050 BKN090 FM010700 31006KT P6SM BKN020 FM011000 33007KT P6SM VCSH BKN016 FM011600 36009KT P6SM BKN022